createdAt,value
2022-10-14T00:00:08.146Z,20.91
2022-10-14T00:01:08.120Z,20.90
2022-10-14T00:02:08.238Z,20.90
2022-10-14T00:03:08.168Z,20.88
2022-10-14T00:04:08.207Z,20.87
2022-10-14T00:05:08.205Z,20.88
2022-10-14T00:06:08.197Z,20.87
2022-10-14T00:07:08.235Z,20.88
2022-10-14T00:08:08.243Z,20.88
2022-10-14T00:09:08.301Z,20.88
2022-10-14T00:10:08.313Z,20.90
2022-10-14T00:11:08.285Z,20.88
2022-10-14T00:12:08.291Z,20.87
2022-10-14T00:13:08.286Z,20.87
2022-10-14T00:14:08.354Z,20.87
2022-10-14T00:15:08.348Z,20.85
2022-10-14T00:16:08.300Z,20.87
2022-10-14T00:17:08.332Z,20.85
2022-10-14T00:18:08.378Z,20.85
2022-10-14T00:19:08.367Z,20.87
2022-10-14T00:20:08.348Z,20.85
2022-10-14T00:21:08.366Z,20.85
2022-10-14T00:22:08.437Z,20.87
2022-10-14T00:23:08.376Z,20.87
2022-10-14T00:24:08.408Z,20.88
2022-10-14T00:25:08.402Z,20.87
2022-10-14T00:26:08.411Z,20.87
2022-10-14T00:27:08.427Z,20.87
2022-10-14T00:28:08.496Z,20.87
2022-10-14T00:29:08.466Z,20.87
2022-10-14T00:30:08.447Z,20.85
2022-10-14T00:31:08.502Z,20.87
2022-10-14T00:32:08.501Z,20.85
2022-10-14T00:33:08.547Z,20.87
2022-10-14T00:34:08.566Z,20.83
2022-10-14T00:35:08.557Z,20.85
2022-10-14T00:36:08.536Z,20.83
2022-10-14T00:37:08.559Z,20.83
2022-10-14T00:38:08.584Z,20.85
2022-10-14T00:39:08.617Z,20.87
2022-10-14T00:40:08.646Z,20.85
2022-10-14T00:41:08.627Z,20.83
2022-10-14T00:42:08.662Z,20.81
2022-10-14T00:43:08.667Z,20.82
2022-10-14T00:44:08.694Z,20.81
2022-10-14T00:45:08.786Z,20.83
2022-10-14T00:46:08.742Z,20.82
2022-10-14T00:47:08.792Z,20.83
2022-10-14T00:48:08.792Z,20.82
2022-10-14T00:49:08.818Z,20.82
2022-10-14T00:50:08.802Z,20.82
2022-10-14T00:51:08.830Z,20.82
2022-10-14T00:52:08.851Z,20.83
2022-10-14T00:53:08.892Z,20.81
2022-10-14T00:54:08.868Z,20.82
2022-10-14T00:55:08.880Z,20.81
2022-10-14T00:56:08.892Z,20.82
2022-10-14T00:57:08.922Z,20.81
2022-10-14T00:58:08.893Z,20.83
2022-10-14T00:59:08.919Z,20.82
2022-10-14T01:00:08.946Z,20.81
2022-10-14T01:01:09.073Z,20.83
2022-10-14T01:02:08.998Z,20.81
2022-10-14T01:03:09.047Z,20.81
2022-10-14T01:04:09.042Z,20.81
2022-10-14T01:05:09.060Z,20.81
2022-10-14T01:06:09.076Z,20.82
2022-10-14T01:07:09.121Z,20.81
2022-10-14T01:08:09.102Z,20.79
2022-10-14T01:09:09.119Z,20.81
2022-10-14T01:10:09.188Z,20.81
2022-10-14T01:11:09.149Z,20.82
2022-10-14T01:12:28.148Z,20.79
2022-10-14T01:13:09.231Z,20.81
2022-10-14T01:14:09.243Z,20.82
2022-10-14T01:15:09.228Z,20.81
2022-10-14T01:16:09.250Z,20.81
2022-10-14T01:17:09.279Z,20.81
2022-10-14T01:18:09.305Z,20.82
2022-10-14T01:19:09.359Z,20.82
2022-10-14T01:20:09.372Z,20.81
2022-10-14T01:21:09.347Z,20.81
2022-10-14T01:22:09.360Z,20.82
2022-10-14T01:23:09.422Z,20.81
2022-10-14T01:24:09.372Z,20.81
2022-10-14T01:25:09.382Z,20.81
2022-10-14T01:26:09.403Z,20.81
2022-10-14T01:27:09.410Z,20.81
2022-10-14T01:28:09.453Z,20.79
2022-10-14T01:29:09.441Z,20.78
2022-10-14T01:30:09.562Z,20.79
2022-10-14T01:31:09.438Z,20.76
2022-10-14T01:32:09.459Z,20.79
2022-10-14T01:33:09.501Z,20.79
2022-10-14T01:34:09.484Z,20.79
2022-10-14T01:35:09.514Z,20.79
2022-10-14T01:36:09.534Z,20.79
2022-10-14T01:37:09.516Z,20.78
2022-10-14T01:38:09.569Z,20.79
2022-10-14T01:39:09.531Z,20.79
2022-10-14T01:40:09.535Z,20.79
2022-10-14T01:41:09.568Z,20.79
2022-10-14T01:42:09.592Z,20.79
2022-10-14T01:43:09.649Z,20.81
2022-10-14T01:44:09.605Z,20.79
2022-10-14T01:45:09.628Z,20.79
2022-10-14T01:46:09.702Z,20.79
2022-10-14T01:47:09.660Z,20.78
2022-10-14T01:48:09.706Z,20.79
2022-10-14T01:49:09.715Z,20.78
2022-10-14T01:50:09.749Z,20.79
2022-10-14T01:51:09.808Z,20.81
2022-10-14T01:52:09.763Z,20.81
2022-10-14T01:53:09.792Z,20.79
2022-10-14T01:54:09.842Z,20.79
2022-10-14T01:55:09.868Z,20.78
2022-10-14T01:56:09.876Z,20.78
2022-10-14T01:57:09.883Z,20.78
2022-10-14T01:58:09.854Z,20.78
2022-10-14T01:59:09.888Z,20.79
2022-10-14T02:00:09.908Z,20.79
2022-10-14T02:01:09.934Z,20.78
2022-10-14T02:02:10.036Z,20.79
2022-10-14T02:03:09.984Z,20.78
2022-10-14T02:04:09.949Z,20.79
2022-10-14T02:05:09.956Z,20.78
2022-10-14T02:06:10.004Z,20.78
2022-10-14T02:07:10.059Z,20.78
2022-10-14T02:08:10.015Z,20.78
2022-10-14T02:09:10.032Z,20.78
2022-10-14T02:10:10.108Z,20.76
2022-10-14T02:11:10.064Z,20.78
2022-10-14T02:12:10.129Z,20.76
2022-10-14T02:13:10.112Z,20.75
2022-10-14T02:14:10.132Z,20.78
2022-10-14T02:15:10.144Z,20.75
2022-10-14T02:16:10.168Z,20.76
2022-10-14T02:17:10.178Z,20.76
2022-10-14T02:18:10.192Z,20.76
2022-10-14T02:19:10.228Z,20.75
2022-10-14T02:20:10.256Z,20.76
2022-10-14T02:21:10.285Z,20.76
2022-10-14T02:22:10.307Z,20.76
2022-10-14T02:23:10.319Z,20.76
2022-10-14T02:24:10.335Z,20.76
2022-10-14T02:25:10.352Z,20.76
2022-10-14T02:26:10.371Z,20.75
2022-10-14T02:27:10.441Z,20.76
2022-10-14T02:28:10.399Z,20.75
2022-10-14T02:29:10.434Z,20.73
2022-10-14T02:30:10.446Z,20.76
2022-10-14T02:31:10.488Z,20.75
2022-10-14T02:32:10.536Z,20.75
2022-10-14T02:33:10.498Z,20.75
2022-10-14T02:34:10.506Z,20.72
2022-10-14T02:35:10.509Z,20.73
2022-10-14T02:36:10.568Z,20.73
2022-10-14T02:37:10.568Z,20.73
2022-10-14T02:38:10.527Z,20.75
2022-10-14T02:39:10.581Z,20.73
2022-10-14T02:40:10.606Z,20.73
2022-10-14T02:41:10.617Z,20.73
2022-10-14T02:42:10.653Z,20.72
2022-10-14T02:43:10.652Z,20.73
2022-10-14T02:44:10.618Z,20.73
2022-10-14T02:45:10.644Z,20.75
2022-10-14T02:46:10.663Z,20.72
2022-10-14T02:47:10.738Z,20.75
2022-10-14T02:48:10.704Z,20.73
2022-10-14T02:49:10.733Z,20.73
2022-10-14T02:50:10.789Z,20.73
2022-10-14T02:51:10.793Z,20.72
2022-10-14T02:52:10.823Z,20.72
2022-10-14T02:53:10.800Z,20.71
2022-10-14T02:54:10.825Z,20.75
2022-10-14T02:55:10.868Z,20.73
2022-10-14T02:56:10.863Z,20.73
2022-10-14T02:57:10.892Z,20.73
2022-10-14T02:58:10.860Z,20.75
2022-10-14T02:59:10.892Z,20.76
2022-10-14T03:00:10.959Z,20.73
2022-10-14T03:01:10.913Z,20.73
2022-10-14T03:02:11.070Z,20.73
2022-10-14T03:03:10.952Z,20.76
2022-10-14T03:04:10.976Z,20.75
2022-10-14T03:05:11.033Z,20.73
2022-10-14T03:06:11.006Z,20.75
2022-10-14T03:07:11.035Z,20.75
2022-10-14T03:08:11.051Z,20.73
2022-10-14T03:09:11.083Z,20.73
2022-10-14T03:10:11.114Z,20.73
2022-10-14T03:11:11.164Z,20.73
2022-10-14T03:12:11.179Z,20.75
2022-10-14T03:13:11.197Z,20.73
2022-10-14T03:14:11.239Z,20.73
2022-10-14T03:15:11.211Z,20.72
2022-10-14T03:16:11.291Z,20.72
2022-10-14T03:17:11.264Z,20.72
2022-10-14T03:18:11.294Z,20.73
2022-10-14T03:19:11.279Z,20.71
2022-10-14T03:20:11.266Z,20.72
2022-10-14T03:21:11.294Z,20.71
2022-10-14T03:22:11.321Z,20.69
2022-10-14T03:23:11.345Z,20.71
2022-10-14T03:24:11.367Z,20.72
2022-10-14T03:25:11.351Z,20.72
2022-10-14T03:26:13.962Z,20.72
2022-10-14T03:27:11.415Z,20.72
2022-10-14T03:28:11.426Z,20.71
2022-10-14T03:29:11.398Z,20.69
2022-10-14T03:30:11.430Z,20.71
2022-10-14T03:31:11.496Z,20.68
2022-10-14T03:32:11.495Z,20.71
2022-10-14T03:33:14.840Z,20.69
2022-10-14T03:34:11.502Z,20.69
2022-10-14T03:35:11.515Z,20.71
2022-10-14T03:36:11.491Z,20.71
2022-10-14T03:37:11.500Z,20.71
2022-10-14T03:38:11.539Z,20.69
2022-10-14T03:39:11.554Z,20.71
2022-10-14T03:40:11.586Z,20.69
2022-10-14T03:41:11.597Z,20.69
2022-10-14T03:42:11.563Z,20.69
2022-10-14T03:43:11.612Z,20.71
2022-10-14T03:44:11.578Z,20.71
2022-10-14T03:45:11.600Z,20.72
2022-10-14T03:46:11.584Z,20.71
2022-10-14T03:47:11.613Z,20.68
2022-10-14T03:48:11.607Z,20.68
2022-10-14T03:49:11.669Z,20.68
2022-10-14T03:50:11.675Z,20.68
2022-10-14T03:51:11.717Z,20.68
2022-10-14T03:52:11.736Z,20.64
2022-10-14T03:53:11.723Z,20.66
2022-10-14T03:54:11.701Z,20.66
2022-10-14T03:55:11.738Z,20.66
2022-10-14T03:56:11.760Z,20.69
2022-10-14T03:57:11.850Z,20.66
2022-10-14T03:58:11.809Z,20.68
2022-10-14T03:59:11.862Z,20.64
2022-10-14T04:00:11.861Z,20.66
2022-10-14T04:01:11.863Z,20.66
2022-10-14T04:02:11.976Z,20.66
2022-10-14T04:03:11.901Z,20.66
2022-10-14T04:04:11.942Z,20.64
2022-10-14T04:05:11.916Z,20.64
2022-10-14T04:06:11.918Z,20.64
2022-10-14T04:07:11.951Z,20.64
2022-10-14T04:08:11.983Z,20.66
2022-10-14T04:09:12.012Z,20.66
2022-10-14T04:10:12.026Z,20.68
2022-10-14T04:11:12.048Z,20.66
2022-10-14T04:12:12.094Z,20.66
2022-10-14T04:13:12.123Z,20.66
2022-10-14T04:14:12.100Z,20.64
2022-10-14T04:15:12.158Z,20.64
2022-10-14T04:16:12.183Z,20.64
2022-10-14T04:17:12.165Z,20.61
2022-10-14T04:18:12.150Z,20.64
2022-10-14T04:19:12.145Z,20.66
2022-10-14T04:20:12.144Z,20.63
2022-10-14T04:21:12.129Z,20.64
2022-10-14T04:22:12.143Z,20.66
2022-10-14T04:23:12.190Z,20.66
2022-10-14T04:24:12.202Z,20.66
2022-10-14T04:25:12.215Z,20.66
2022-10-14T04:26:12.261Z,20.63
2022-10-14T04:27:12.255Z,20.64
2022-10-14T04:28:12.223Z,20.61
2022-10-14T04:29:12.247Z,20.61
2022-10-14T04:30:12.276Z,20.63
2022-10-14T04:31:12.340Z,20.61
2022-10-14T04:32:12.352Z,20.63
2022-10-14T04:33:12.323Z,20.61
2022-10-14T04:34:12.354Z,20.63
2022-10-14T04:35:12.398Z,20.64
2022-10-14T04:36:12.378Z,20.64
2022-10-14T04:37:12.404Z,20.61
2022-10-14T04:38:12.434Z,20.64
2022-10-14T04:39:12.450Z,20.66
2022-10-14T04:40:12.487Z,20.63
2022-10-14T04:41:12.491Z,20.63
2022-10-14T04:42:12.465Z,20.61
2022-10-14T04:43:12.509Z,20.63
2022-10-14T04:44:12.537Z,20.60
2022-10-14T04:45:12.565Z,20.61
2022-10-14T04:46:12.553Z,20.60
2022-10-14T04:47:12.600Z,20.60
2022-10-14T04:48:12.595Z,20.61
2022-10-14T04:49:12.631Z,20.61
2022-10-14T04:50:12.640Z,20.60
2022-10-14T04:51:12.614Z,20.63
2022-10-14T04:52:12.620Z,20.61
2022-10-14T04:53:14.040Z,20.63
2022-10-14T04:54:12.658Z,20.63
2022-10-14T04:55:12.722Z,20.63
2022-10-14T04:56:12.716Z,20.64
2022-10-14T04:57:12.681Z,20.63
2022-10-14T04:58:12.711Z,20.61
2022-10-14T04:59:12.739Z,20.60
2022-10-14T05:00:12.762Z,20.60
2022-10-14T05:02:38.697Z,20.63
2022-10-14T05:03:38.690Z,20.66
2022-10-14T05:04:38.689Z,20.66
2022-10-14T05:05:38.711Z,20.64
2022-10-14T05:06:38.729Z,20.64
2022-10-14T05:07:38.755Z,20.64
2022-10-14T05:08:38.747Z,20.64
2022-10-14T05:09:38.755Z,20.63
2022-10-14T05:10:38.775Z,20.60
2022-10-14T05:11:38.778Z,20.61
2022-10-14T05:12:38.749Z,20.61
2022-10-14T05:13:38.765Z,20.64
2022-10-14T05:14:38.779Z,20.64
2022-10-14T05:15:38.825Z,20.63
2022-10-14T05:16:38.809Z,20.61
2022-10-14T05:17:38.827Z,20.61
2022-10-14T05:18:38.861Z,20.63
2022-10-14T05:19:38.854Z,20.63
2022-10-14T05:20:38.856Z,20.60
2022-10-14T05:21:38.905Z,20.60
2022-10-14T05:22:38.857Z,20.60
2022-10-14T05:23:38.906Z,20.60
2022-10-14T05:24:38.885Z,20.60
2022-10-14T05:25:38.876Z,20.63
2022-10-14T05:26:38.892Z,20.64
2022-10-14T05:27:38.932Z,20.60
2022-10-14T05:28:39.002Z,20.58
2022-10-14T05:29:38.946Z,20.58
2022-10-14T05:30:38.923Z,20.58
2022-10-14T05:31:38.921Z,20.58
2022-10-14T05:32:38.924Z,20.58
2022-10-14T05:33:38.977Z,20.58
2022-10-14T05:34:38.967Z,20.58
2022-10-14T05:35:58.142Z,20.58
2022-10-14T05:36:39.069Z,20.63
2022-10-14T05:37:39.008Z,20.61
2022-10-14T05:38:39.051Z,20.60
2022-10-14T05:39:39.039Z,20.60
2022-10-14T05:40:39.079Z,20.60
2022-10-14T05:41:39.075Z,20.63
2022-10-14T05:42:39.111Z,20.60
2022-10-14T05:43:39.109Z,20.60
2022-10-14T05:44:39.097Z,20.60
2022-10-14T05:45:39.119Z,20.60
2022-10-14T05:46:39.158Z,20.60
2022-10-14T05:47:39.132Z,20.60
2022-10-14T05:48:39.143Z,20.60
2022-10-14T05:49:39.138Z,20.56
2022-10-14T05:50:39.188Z,20.57
2022-10-14T05:51:39.189Z,20.60
2022-10-14T05:52:39.196Z,20.57
2022-10-14T05:53:39.225Z,20.57
2022-10-14T05:54:39.242Z,20.60
2022-10-14T05:55:39.299Z,20.58
2022-10-14T05:56:39.275Z,20.58
2022-10-14T05:57:39.291Z,20.58
2022-10-14T05:58:39.333Z,20.60
2022-10-14T05:59:39.356Z,20.58
2022-10-14T06:00:39.371Z,20.61
2022-10-14T06:01:39.377Z,20.66
2022-10-14T06:02:39.394Z,20.64
2022-10-14T06:03:39.412Z,20.64
2022-10-14T06:04:39.432Z,20.66
2022-10-14T06:05:39.429Z,20.64
2022-10-14T06:06:39.453Z,20.66
2022-10-14T06:07:39.451Z,20.64
2022-10-14T06:08:39.489Z,20.64
2022-10-14T06:09:39.491Z,20.64
2022-10-14T06:10:39.510Z,20.64
2022-10-14T06:11:39.544Z,20.63
2022-10-14T06:12:39.490Z,20.61
2022-10-14T06:13:39.542Z,20.63
2022-10-14T06:14:39.513Z,20.63
2022-10-14T06:15:39.540Z,20.63
2022-10-14T06:16:39.553Z,20.61
2022-10-14T06:17:39.585Z,20.63
2022-10-14T06:18:39.587Z,20.63
2022-10-14T06:19:39.608Z,20.63
2022-10-14T06:20:39.631Z,20.64
2022-10-14T06:21:39.673Z,20.66
2022-10-14T06:22:39.753Z,20.66
2022-10-14T06:23:39.722Z,20.66
2022-10-14T06:24:39.729Z,20.69
2022-10-14T06:25:39.747Z,20.68
2022-10-14T06:26:39.776Z,20.66
2022-10-14T06:27:39.826Z,20.64
2022-10-14T06:28:39.907Z,20.64
2022-10-14T06:29:39.785Z,20.66
2022-10-14T06:30:39.812Z,20.66
2022-10-14T06:31:39.863Z,20.68
2022-10-14T06:32:39.848Z,20.66
2022-10-14T06:33:39.838Z,20.66
2022-10-14T06:34:39.825Z,20.69
2022-10-14T06:35:39.855Z,20.69
2022-10-14T06:36:39.947Z,20.69
2022-10-14T06:37:39.903Z,20.71
2022-10-14T06:38:39.899Z,20.71
2022-10-14T06:39:39.907Z,20.71
2022-10-14T06:40:39.931Z,20.69
2022-10-14T06:41:39.950Z,20.71
2022-10-14T06:42:39.972Z,20.69
2022-10-14T06:43:39.987Z,20.71
2022-10-14T06:44:39.987Z,20.72
2022-10-14T06:45:40.026Z,20.73
2022-10-14T06:46:40.059Z,20.76
2022-10-14T06:47:40.028Z,20.78
2022-10-14T06:48:40.061Z,20.79
2022-10-14T06:49:40.098Z,20.82
2022-10-14T06:50:40.106Z,20.83
2022-10-14T06:51:40.122Z,20.88
2022-10-14T06:52:40.163Z,20.90
2022-10-14T06:53:40.140Z,20.93
2022-10-14T06:54:42.559Z,20.96
2022-10-14T06:55:40.224Z,20.98
2022-10-14T06:56:40.252Z,21.01
2022-10-14T06:57:40.223Z,21.01
2022-10-14T06:58:40.260Z,21.01
2022-10-14T06:59:40.257Z,21.03
2022-10-14T07:00:43.182Z,21.05
2022-10-14T07:01:40.326Z,21.08
2022-10-14T07:02:40.267Z,21.08
2022-10-14T07:03:40.279Z,21.11
2022-10-14T07:04:40.317Z,21.12
2022-10-14T07:05:40.344Z,21.13
2022-10-14T07:06:40.324Z,21.15
2022-10-14T07:07:40.355Z,21.13
2022-10-14T07:08:40.343Z,21.16
2022-10-14T07:09:40.382Z,21.16
2022-10-14T07:10:40.432Z,21.15
2022-10-14T07:11:40.421Z,21.16
2022-10-14T07:12:40.465Z,21.16
2022-10-14T07:13:40.472Z,21.19
2022-10-14T07:14:40.466Z,21.21
2022-10-14T07:15:40.968Z,21.22
2022-10-14T07:16:40.501Z,21.22
2022-10-14T07:17:40.506Z,21.26
2022-10-14T07:18:40.506Z,21.27
2022-10-14T07:19:40.532Z,21.27
2022-10-14T07:20:40.539Z,21.27
2022-10-14T07:21:40.576Z,21.28
2022-10-14T07:22:40.557Z,21.27
2022-10-14T07:23:40.590Z,21.27
2022-10-14T07:24:40.606Z,21.30
2022-10-14T07:25:40.632Z,21.30
2022-10-14T07:26:40.712Z,21.31
2022-10-14T07:27:40.675Z,21.31
2022-10-14T07:28:40.785Z,21.33
2022-10-14T07:29:40.726Z,21.33
2022-10-14T07:30:40.692Z,21.34
2022-10-14T07:31:40.689Z,21.37
2022-10-14T07:32:40.662Z,21.36
2022-10-14T07:33:40.674Z,21.37
2022-10-14T07:34:40.729Z,21.38
2022-10-14T07:35:40.837Z,21.40
2022-10-14T07:36:40.699Z,21.40
2022-10-14T07:37:40.701Z,21.40
2022-10-14T07:38:40.744Z,21.42
2022-10-14T07:39:40.756Z,21.38
2022-10-14T07:40:40.775Z,21.42
2022-10-14T07:41:40.884Z,21.40
2022-10-14T07:42:40.849Z,21.38
2022-10-14T07:43:40.810Z,21.37
2022-10-14T07:44:40.831Z,21.38
2022-10-14T07:45:40.828Z,21.42
2022-10-14T07:46:40.841Z,21.42
2022-10-14T07:47:40.841Z,21.43
2022-10-14T07:48:57.514Z,21.43
2022-10-14T07:49:40.840Z,21.46
2022-10-14T07:50:40.839Z,21.48
2022-10-14T07:51:40.859Z,21.48
2022-10-14T07:52:40.883Z,21.51
2022-10-14T07:53:40.864Z,21.53
2022-10-14T07:54:40.894Z,21.53
2022-10-14T07:55:40.897Z,21.53
2022-10-14T07:56:40.913Z,21.58
2022-10-14T07:57:40.955Z,21.58
2022-10-14T07:58:44.358Z,21.59
2022-10-14T07:59:40.902Z,21.58
2022-10-14T08:00:40.918Z,21.63
2022-10-14T08:01:41.066Z,21.61
2022-10-14T08:02:41.035Z,21.63
2022-10-14T08:03:40.965Z,21.63
2022-10-14T08:04:40.990Z,21.63
2022-10-14T08:05:40.996Z,21.61
2022-10-14T08:06:41.009Z,21.59
2022-10-14T08:07:41.035Z,21.59
2022-10-14T08:08:41.051Z,21.61
2022-10-14T08:09:41.096Z,21.59
2022-10-14T08:10:41.117Z,21.59
2022-10-14T08:11:41.130Z,21.61
2022-10-14T08:12:41.151Z,21.63
2022-10-14T08:13:45.068Z,21.61
2022-10-14T08:14:41.181Z,21.61
2022-10-14T08:15:41.186Z,21.63
2022-10-14T08:16:41.212Z,21.61
2022-10-14T08:17:42.048Z,21.63
2022-10-14T08:18:41.237Z,21.64
2022-10-14T08:19:41.216Z,21.64
2022-10-14T08:20:41.270Z,21.64
2022-10-14T08:21:41.241Z,21.66
2022-10-14T08:22:41.295Z,21.66
2022-10-14T08:23:41.262Z,21.66
2022-10-14T08:24:41.318Z,21.67
2022-10-14T08:25:41.316Z,21.67
2022-10-14T08:26:41.334Z,21.70
2022-10-14T08:27:41.389Z,21.68
2022-10-14T08:28:41.442Z,21.68
2022-10-14T08:29:41.400Z,21.70
2022-10-14T08:30:41.475Z,21.73
2022-10-14T08:31:41.435Z,21.74
2022-10-14T08:32:41.481Z,21.73
2022-10-14T08:33:41.465Z,21.74
2022-10-14T08:34:41.608Z,21.75
2022-10-14T08:35:41.439Z,21.75
2022-10-14T08:36:41.582Z,21.75
2022-10-14T08:37:41.444Z,21.77
2022-10-14T08:38:41.462Z,21.79
2022-10-14T08:39:41.464Z,21.77
2022-10-14T08:40:41.530Z,21.77
2022-10-14T08:41:41.484Z,21.77
2022-10-14T08:42:41.498Z,21.79
2022-10-14T08:43:41.522Z,21.81
2022-10-14T08:44:41.563Z,21.81
2022-10-14T08:45:41.533Z,21.81
2022-10-14T08:46:41.585Z,21.82
2022-10-14T08:47:41.597Z,21.82
2022-10-14T08:48:41.573Z,21.81
2022-10-14T08:49:41.596Z,21.82
2022-10-14T08:50:41.729Z,21.82
2022-10-14T08:51:41.633Z,21.81
2022-10-14T08:52:41.700Z,21.81
2022-10-14T08:53:41.683Z,21.83
2022-10-14T08:54:41.645Z,21.83
2022-10-14T08:55:41.654Z,21.86
2022-10-14T08:56:41.828Z,21.86
2022-10-14T08:57:41.787Z,21.85
2022-10-14T08:58:42.056Z,21.89
2022-10-14T08:59:41.704Z,21.89
2022-10-14T09:00:41.807Z,21.90
2022-10-14T09:01:41.795Z,21.90
2022-10-14T09:02:41.783Z,21.91
2022-10-14T09:03:41.804Z,21.90
2022-10-14T09:04:41.813Z,21.91
2022-10-14T09:05:41.766Z,21.91
2022-10-14T09:06:41.820Z,21.91
2022-10-14T09:07:42.487Z,21.93
2022-10-14T09:08:41.849Z,21.90
2022-10-14T09:09:41.833Z,21.91
2022-10-14T09:10:41.862Z,21.91
2022-10-14T09:11:41.862Z,21.93
2022-10-14T09:12:41.895Z,21.93
2022-10-14T09:13:41.915Z,21.93
2022-10-14T09:14:41.940Z,21.93
2022-10-14T09:15:41.969Z,21.94
2022-10-14T09:16:42.084Z,21.94
2022-10-14T09:17:42.008Z,21.94
2022-10-14T09:18:42.019Z,21.96
2022-10-14T09:19:41.967Z,21.94
2022-10-14T09:20:42.006Z,21.94
2022-10-14T09:21:52.688Z,21.98
2022-10-14T09:22:42.162Z,21.96
2022-10-14T09:23:42.014Z,21.98
2022-10-14T09:24:42.001Z,21.99
2022-10-14T09:25:42.002Z,21.98
2022-10-14T09:26:41.986Z,22.02
2022-10-14T09:27:42.047Z,22.02
2022-10-14T09:28:43.010Z,22.02
2022-10-14T09:29:42.036Z,22.04
2022-10-14T09:30:42.025Z,22.02
2022-10-14T09:31:42.009Z,22.01
2022-10-14T09:32:42.043Z,22.05
2022-10-14T09:33:42.687Z,22.04
2022-10-14T09:34:42.085Z,22.05
2022-10-14T09:35:42.118Z,22.05
2022-10-14T09:36:42.146Z,22.06
2022-10-14T09:37:42.116Z,22.09
2022-10-14T09:38:42.112Z,22.09
2022-10-14T09:39:42.126Z,22.09
2022-10-14T09:40:42.153Z,22.09
2022-10-14T09:41:42.239Z,22.11
2022-10-14T09:42:42.224Z,22.14
2022-10-14T09:43:42.205Z,22.14
2022-10-14T09:44:42.229Z,22.17
2022-10-14T09:45:42.301Z,22.17
2022-10-14T09:46:42.249Z,22.15
2022-10-14T09:47:42.288Z,22.15
2022-10-14T09:48:42.591Z,22.19
2022-10-14T09:49:42.297Z,22.19
2022-10-14T09:50:42.393Z,22.20
2022-10-14T09:51:42.331Z,22.20
2022-10-14T09:52:42.358Z,22.20
2022-10-14T09:53:42.371Z,22.20
2022-10-14T09:54:42.362Z,22.20
2022-10-14T09:55:42.368Z,22.23
2022-10-14T09:56:42.476Z,22.23
2022-10-14T09:57:42.399Z,22.24
2022-10-14T09:58:42.406Z,22.26
2022-10-14T09:59:42.407Z,22.26
2022-10-14T10:00:42.430Z,22.26
2022-10-14T10:01:42.416Z,22.27
2022-10-14T10:02:42.444Z,22.27
2022-10-14T10:03:42.624Z,22.29
2022-10-14T10:04:42.473Z,22.31
2022-10-14T10:05:42.474Z,22.29
2022-10-14T10:06:42.505Z,22.30
2022-10-14T10:07:42.925Z,22.30
2022-10-14T10:08:42.494Z,22.31
2022-10-14T10:09:42.514Z,22.31
2022-10-14T10:10:42.514Z,22.33
2022-10-14T10:11:42.532Z,22.33
2022-10-14T10:12:42.562Z,22.33
2022-10-14T10:13:42.605Z,22.33
2022-10-14T10:14:42.586Z,22.35
2022-10-14T10:15:42.611Z,22.38
2022-10-14T10:16:42.682Z,22.36
2022-10-14T10:17:42.643Z,22.39
2022-10-14T10:18:42.696Z,22.41
2022-10-14T10:19:42.672Z,22.39
2022-10-14T10:20:42.654Z,22.39
2022-10-14T10:21:42.695Z,22.41
2022-10-14T10:22:42.906Z,22.41
2022-10-14T10:23:42.719Z,22.42
2022-10-14T10:24:42.700Z,22.42
2022-10-14T10:25:42.714Z,22.44
2022-10-14T10:26:42.730Z,22.45
2022-10-14T10:27:42.747Z,22.45
2022-10-14T10:28:42.861Z,22.45
2022-10-14T10:29:42.798Z,22.46
2022-10-14T10:30:42.871Z,22.48
2022-10-14T10:31:42.955Z,22.49
2022-10-14T10:32:42.906Z,22.48
2022-10-14T10:33:42.864Z,22.49
2022-10-14T10:34:42.890Z,22.49
2022-10-14T10:35:42.935Z,22.49
2022-10-14T10:36:42.912Z,22.48
2022-10-14T10:37:42.945Z,22.48
2022-10-14T10:38:43.013Z,22.48
2022-10-14T10:39:42.973Z,22.48
2022-10-14T10:40:43.046Z,22.49
2022-10-14T10:41:43.013Z,22.49
2022-10-14T10:42:43.080Z,22.51
2022-10-14T10:43:43.043Z,22.52
2022-10-14T10:44:43.042Z,22.52
2022-10-14T10:45:43.090Z,22.54
2022-10-14T10:46:43.209Z,22.56
2022-10-14T10:47:43.049Z,22.54
2022-10-14T10:48:43.078Z,22.56
2022-10-14T10:49:43.160Z,22.56
2022-10-14T10:50:43.130Z,22.56
2022-10-14T10:51:43.134Z,22.54
2022-10-14T10:52:43.121Z,22.52
2022-10-14T10:53:43.102Z,22.52
2022-10-14T10:54:43.155Z,22.56
2022-10-14T10:55:43.178Z,22.52
2022-10-14T10:56:43.192Z,22.54
2022-10-14T10:57:43.201Z,22.54
2022-10-14T10:58:43.125Z,22.54
2022-10-14T10:59:43.188Z,22.54
2022-10-14T11:00:44.164Z,22.56
2022-10-14T11:01:43.288Z,22.56
2022-10-14T11:02:43.177Z,22.56
2022-10-14T11:03:43.219Z,22.56
2022-10-14T11:04:43.155Z,22.52
2022-10-14T11:05:43.157Z,22.56
2022-10-14T11:06:43.128Z,22.54
2022-10-14T11:07:43.136Z,22.56
2022-10-14T11:08:43.170Z,22.54
2022-10-14T11:09:43.279Z,22.54
2022-10-14T11:10:43.209Z,22.56
2022-10-14T11:11:43.185Z,22.56
2022-10-14T11:12:43.229Z,22.54
2022-10-14T11:13:43.246Z,22.54
2022-10-14T11:14:43.270Z,22.54
2022-10-14T11:15:43.303Z,22.56
2022-10-14T11:16:43.316Z,22.54
2022-10-14T11:17:43.326Z,22.52
2022-10-14T11:18:43.325Z,22.52
2022-10-14T11:19:43.354Z,22.54
2022-10-14T11:20:43.375Z,22.54
2022-10-14T11:21:43.377Z,22.56
2022-10-14T11:22:43.353Z,22.56
2022-10-14T11:23:43.365Z,22.56
2022-10-14T11:24:43.407Z,22.56
2022-10-14T11:25:43.385Z,22.57
2022-10-14T11:26:43.536Z,22.57
2022-10-14T11:27:43.463Z,22.59
2022-10-14T11:28:43.496Z,22.61
2022-10-14T11:29:43.428Z,22.64
2022-10-14T11:30:43.445Z,22.66
2022-10-14T11:31:43.441Z,22.70
2022-10-14T11:32:43.471Z,22.75
2022-10-14T11:33:43.481Z,22.78
2022-10-14T11:34:43.461Z,22.82
2022-10-14T11:35:43.472Z,22.85
2022-10-14T11:36:43.502Z,22.88
2022-10-14T11:37:43.531Z,22.89
2022-10-14T11:38:43.515Z,22.91
2022-10-14T11:39:43.516Z,22.93
2022-10-14T11:40:43.539Z,22.96
2022-10-14T11:41:43.556Z,22.97
2022-10-14T11:42:43.589Z,22.99
2022-10-14T11:43:43.545Z,23.00
2022-10-14T11:44:43.569Z,23.03
2022-10-14T11:45:43.546Z,23.03
2022-10-14T11:46:43.555Z,23.06
2022-10-14T11:47:43.587Z,23.07
2022-10-14T11:48:43.615Z,23.09
2022-10-14T11:49:43.624Z,23.09
2022-10-14T11:50:43.655Z,23.11
2022-10-14T11:51:43.631Z,23.12
2022-10-14T11:52:43.651Z,23.12
2022-10-14T11:53:43.688Z,23.12
2022-10-14T11:54:43.711Z,23.14
2022-10-14T11:55:43.709Z,23.14
2022-10-14T11:56:43.743Z,23.14
2022-10-14T11:57:43.812Z,23.16
2022-10-14T11:58:43.773Z,23.15
2022-10-14T11:59:43.782Z,23.16
2022-10-14T12:00:43.775Z,23.16
2022-10-14T12:01:43.807Z,23.18
2022-10-14T12:02:43.941Z,23.19
2022-10-14T12:03:43.824Z,23.21
2022-10-14T12:04:43.863Z,23.22
2022-10-14T12:05:43.855Z,23.23
2022-10-14T12:06:43.882Z,23.26
2022-10-14T12:07:43.915Z,23.29
2022-10-14T12:08:43.933Z,23.32
2022-10-14T12:09:43.953Z,23.35
2022-10-14T12:10:44.057Z,23.34
2022-10-14T12:11:44.003Z,23.35
2022-10-14T12:12:44.034Z,23.37
2022-10-14T12:13:44.013Z,23.37
2022-10-14T12:14:44.065Z,23.37
2022-10-14T12:15:44.151Z,23.37
2022-10-14T12:16:44.077Z,23.38
2022-10-14T12:17:44.112Z,23.41
2022-10-14T12:18:44.130Z,23.42
2022-10-14T12:19:44.164Z,23.41
2022-10-14T12:20:44.160Z,23.42
2022-10-14T12:21:48.153Z,23.44
2022-10-14T12:22:44.216Z,23.44
2022-10-14T12:23:44.213Z,23.44
2022-10-14T12:24:44.230Z,23.45
2022-10-14T12:25:44.244Z,23.45
2022-10-14T12:26:44.262Z,23.47
2022-10-14T12:27:44.298Z,23.49
2022-10-14T12:28:44.423Z,23.47
2022-10-14T12:29:44.332Z,23.47
2022-10-14T12:30:44.435Z,23.47
2022-10-14T12:31:44.383Z,23.45
2022-10-14T12:32:44.402Z,23.45
2022-10-14T12:33:44.398Z,23.45
2022-10-14T12:34:44.404Z,23.45
2022-10-14T12:35:44.415Z,23.44
2022-10-14T12:36:44.471Z,23.44
2022-10-14T12:37:44.464Z,23.44
2022-10-14T12:38:44.434Z,23.44
2022-10-14T12:39:44.431Z,23.42
2022-10-14T12:40:44.447Z,23.42
2022-10-14T12:41:44.473Z,23.42
2022-10-14T12:42:44.513Z,23.45
2022-10-14T12:43:45.702Z,23.45
2022-10-14T12:44:44.554Z,23.47
2022-10-14T12:45:44.558Z,23.47
2022-10-14T12:46:44.598Z,23.47
2022-10-14T12:47:44.617Z,23.47
2022-10-14T12:48:44.587Z,23.49
2022-10-14T12:49:44.620Z,23.47
2022-10-14T12:50:44.640Z,23.47
2022-10-14T12:51:44.661Z,23.49
2022-10-14T12:52:44.665Z,23.45
2022-10-14T12:53:44.649Z,23.47